sensor_id;sensor_type;location;lat;lon;timestamp;temperature;humidity
36458;DHT22;22480;50.546;12.292;2024-03-02T00:02:24;5.50;99.90
36458;DHT22;22480;50.546;12.292;2024-03-02T00:04:51;5.40;99.90
36458;DHT22;22480;50.546;12.292;2024-03-02T00:07:17;5.40;99.90
36458;DHT22;22480;50.546;12.292;2024-03-02T00:09:43;5.40;99.90
36458;DHT22;22480;50.546;12.292;2024-03-02T00:12:11;5.40;99.90
36458;DHT22;22480;50.546;12.292;2024-03-02T00:14:40;5.30;99.90
36458;DHT22;22480;50.546;12.292;2024-03-02T00:17:09;5.20;99.90
36458;DHT22;22480;50.546;12.292;2024-03-02T00:19:41;5.20;99.90
36458;DHT22;22480;50.546;12.292;2024-03-02T00:22:07;5.10;99.90
36458;DHT22;22480;50.546;12.292;2024-03-02T00:24:34;5.10;99.90
36458;DHT22;22480;50.546;12.292;2024-03-02T00:27:04;5.00;99.90
36458;DHT22;22480;50.546;12.292;2024-03-02T00:29:30;4.90;99.90
36458;DHT22;22480;50.546;12.292;2024-03-02T00:31:57;4.90;99.90
36458;DHT22;22480;50.546;12.292;2024-03-02T00:34:23;4.80;99.90
36458;DHT22;22480;50.546;12.292;2024-03-02T00:36:49;4.70;99.90
36458;DHT22;22480;50.546;12.292;2024-03-02T00:39:16;4.70;99.90
36458;DHT22;22480;50.546;12.292;2024-03-02T00:41:43;4.70;99.90
36458;DHT22;22480;50.546;12.292;2024-03-02T00:44:13;4.60;99.90
36458;DHT22;22480;50.546;12.292;2024-03-02T00:46:42;4.60;99.90
36458;DHT22;22480;50.546;12.292;2024-03-02T00:49:23;4.50;99.90
36458;DHT22;22480;50.546;12.292;2024-03-02T00:51:50;4.50;99.90
36458;DHT22;22480;50.546;12.292;2024-03-02T00:54:20;4.50;99.90
36458;DHT22;22480;50.546;12.292;2024-03-02T00:56:47;4.60;99.90
36458;DHT22;22480;50.546;12.292;2024-03-02T00:59:13;4.60;99.90
36458;DHT22;22480;50.546;12.292;2024-03-02T01:01:38;4.60;99.90
36458;DHT22;22480;50.546;12.292;2024-03-02T01:04:04;4.60;99.90
36458;DHT22;22480;50.546;12.292;2024-03-02T01:06:30;4.70;99.90
36458;DHT22;22480;50.546;12.292;2024-03-02T01:08:56;4.80;99.90
36458;DHT22;22480;50.546;12.292;2024-03-02T01:11:21;4.90;99.90
36458;DHT22;22480;50.546;12.292;2024-03-02T01:13:47;5.00;99.90
36458;DHT22;22480;50.546;12.292;2024-03-02T01:16:14;5.00;99.90
36458;DHT22;22480;50.546;12.292;2024-03-02T01:18:41;5.00;99.90
36458;DHT22;22480;50.546;12.292;2024-03-02T01:21:07;5.00;99.90
36458;DHT22;22480;50.546;12.292;2024-03-02T01:23:33;5.10;99.90
36458;DHT22;22480;50.546;12.292;2024-03-02T01:25:58;5.10;99.90
36458;DHT22;22480;50.546;12.292;2024-03-02T01:28:24;5.10;99.90
36458;DHT22;22480;50.546;12.292;2024-03-02T01:30:50;5.10;99.90
36458;DHT22;22480;50.546;12.292;2024-03-02T01:33:16;5.10;99.90
36458;DHT22;22480;50.546;12.292;2024-03-02T01:35:43;5.00;99.90
36458;DHT22;22480;50.546;12.292;2024-03-02T01:38:09;5.10;99.90
36458;DHT22;22480;50.546;12.292;2024-03-02T01:40:35;5.10;99.90
36458;DHT22;22480;50.546;12.292;2024-03-02T01:43:01;5.10;99.90
36458;DHT22;22480;50.546;12.292;2024-03-02T01:45:28;5.00;99.90
36458;DHT22;22480;50.546;12.292;2024-03-02T01:47:54;5.10;99.90
36458;DHT22;22480;50.546;12.292;2024-03-02T01:50:27;5.10;99.90
36458;DHT22;22480;50.546;12.292;2024-03-02T01:52:53;5.10;99.90
36458;DHT22;22480;50.546;12.292;2024-03-02T01:55:19;5.10;99.90
36458;DHT22;22480;50.546;12.292;2024-03-02T01:57:44;5.00;99.90
36458;DHT22;22480;50.546;12.292;2024-03-02T02:00:11;5.10;99.90
36458;DHT22;22480;50.546;12.292;2024-03-02T02:02:37;5.10;99.90
36458;DHT22;22480;50.546;12.292;2024-03-02T02:05:03;5.00;99.90
36458;DHT22;22480;50.546;12.292;2024-03-02T02:07:29;5.10;99.90
36458;DHT22;22480;50.546;12.292;2024-03-02T02:09:55;5.10;99.90
36458;DHT22;22480;50.546;12.292;2024-03-02T02:12:20;5.10;99.90
36458;DHT22;22480;50.546;12.292;2024-03-02T02:14:49;5.00;99.90
36458;DHT22;22480;50.546;12.292;2024-03-02T02:17:18;5.00;99.90
36458;DHT22;22480;50.546;12.292;2024-03-02T02:19:43;5.00;99.90
36458;DHT22;22480;50.546;12.292;2024-03-02T02:22:12;5.00;99.90
36458;DHT22;22480;50.546;12.292;2024-03-02T02:24:41;4.90;99.90
36458;DHT22;22480;50.546;12.292;2024-03-02T02:27:08;4.90;99.90
36458;DHT22;22480;50.546;12.292;2024-03-02T02:29:34;4.80;99.90
36458;DHT22;22480;50.546;12.292;2024-03-02T02:32:00;4.80;99.90
36458;DHT22;22480;50.546;12.292;2024-03-02T02:34:25;4.80;99.90
36458;DHT22;22480;50.546;12.292;2024-03-02T02:36:51;4.80;99.90
36458;DHT22;22480;50.546;12.292;2024-03-02T02:39:20;4.80;99.90
36458;DHT22;22480;50.546;12.292;2024-03-02T02:41:46;4.80;99.90
36458;DHT22;22480;50.546;12.292;2024-03-02T02:44:12;4.80;99.90
36458;DHT22;22480;50.546;12.292;2024-03-02T02:46:39;4.80;99.90
36458;DHT22;22480;50.546;12.292;2024-03-02T02:49:05;4.80;99.90
36458;DHT22;22480;50.546;12.292;2024-03-02T02:51:30;4.90;99.90
36458;DHT22;22480;50.546;12.292;2024-03-02T02:53:56;4.90;99.90
36458;DHT22;22480;50.546;12.292;2024-03-02T02:56:22;4.90;99.90
36458;DHT22;22480;50.546;12.292;2024-03-02T02:58:48;5.00;99.90
36458;DHT22;22480;50.546;12.292;2024-03-02T03:01:15;5.00;99.90
36458;DHT22;22480;50.546;12.292;2024-03-02T03:03:44;5.00;99.90
36458;DHT22;22480;50.546;12.292;2024-03-02T03:06:10;5.00;99.90
36458;DHT22;22480;50.546;12.292;2024-03-02T03:08:35;4.90;99.90
36458;DHT22;22480;50.546;12.292;2024-03-02T03:11:01;4.90;99.90
36458;DHT22;22480;50.546;12.292;2024-03-02T03:13:27;4.90;99.90
36458;DHT22;22480;50.546;12.292;2024-03-02T03:15:53;4.90;99.90
36458;DHT22;22480;50.546;12.292;2024-03-02T03:18:18;4.90;99.90
36458;DHT22;22480;50.546;12.292;2024-03-02T03:20:44;4.90;99.90
36458;DHT22;22480;50.546;12.292;2024-03-02T03:23:09;5.00;99.90
36458;DHT22;22480;50.546;12.292;2024-03-02T03:25:40;5.00;99.90
36458;DHT22;22480;50.546;12.292;2024-03-02T03:28:07;5.00;99.90
36458;DHT22;22480;50.546;12.292;2024-03-02T03:30:32;5.00;99.90
36458;DHT22;22480;50.546;12.292;2024-03-02T03:32:58;5.00;99.90
36458;DHT22;22480;50.546;12.292;2024-03-02T03:35:23;4.90;99.90
36458;DHT22;22480;50.546;12.292;2024-03-02T03:37:49;4.90;99.90
36458;DHT22;22480;50.546;12.292;2024-03-02T03:40:15;4.80;99.90
36458;DHT22;22480;50.546;12.292;2024-03-02T03:42:40;4.80;99.90
36458;DHT22;22480;50.546;12.292;2024-03-02T03:45:06;4.70;99.90
36458;DHT22;22480;50.546;12.292;2024-03-02T03:47:32;4.70;99.90
36458;DHT22;22480;50.546;12.292;2024-03-02T03:49:58;4.70;99.90
36458;DHT22;22480;50.546;12.292;2024-03-02T03:52:24;4.70;99.90
36458;DHT22;22480;50.546;12.292;2024-03-02T03:54:50;4.70;99.90
36458;DHT22;22480;50.546;12.292;2024-03-02T03:57:16;4.70;99.90
36458;DHT22;22480;50.546;12.292;2024-03-02T03:59:42;4.70;99.90
36458;DHT22;22480;50.546;12.292;2024-03-02T04:02:08;4.70;99.90
36458;DHT22;22480;50.546;12.292;2024-03-02T04:04:34;4.60;99.90
36458;DHT22;22480;50.546;12.292;2024-03-02T04:07:00;4.70;99.90
36458;DHT22;22480;50.546;12.292;2024-03-02T04:09:26;4.70;99.90
36458;DHT22;22480;50.546;12.292;2024-03-02T04:11:52;4.70;99.90
36458;DHT22;22480;50.546;12.292;2024-03-02T04:14:18;4.80;99.90
36458;DHT22;22480;50.546;12.292;2024-03-02T04:16:44;4.80;99.90
36458;DHT22;22480;50.546;12.292;2024-03-02T04:19:10;4.80;99.90
36458;DHT22;22480;50.546;12.292;2024-03-02T04:21:35;4.90;99.90
36458;DHT22;22480;50.546;12.292;2024-03-02T04:24:01;4.90;99.90
36458;DHT22;22480;50.546;12.292;2024-03-02T04:26:26;5.00;99.90
36458;DHT22;22480;50.546;12.292;2024-03-02T04:28:52;5.10;99.90
36458;DHT22;22480;50.546;12.292;2024-03-02T04:31:19;5.10;99.90
36458;DHT22;22480;50.546;12.292;2024-03-02T04:33:45;5.10;99.90
36458;DHT22;22480;50.546;12.292;2024-03-02T04:36:11;5.10;99.90
36458;DHT22;22480;50.546;12.292;2024-03-02T04:38:38;5.10;99.90
36458;DHT22;22480;50.546;12.292;2024-03-02T04:41:05;5.10;99.90
36458;DHT22;22480;50.546;12.292;2024-03-02T04:43:34;5.00;99.90
36458;DHT22;22480;50.546;12.292;2024-03-02T04:46:00;5.00;99.90
36458;DHT22;22480;50.546;12.292;2024-03-02T04:48:26;5.00;99.90
36458;DHT22;22480;50.546;12.292;2024-03-02T04:50:52;5.00;99.90
36458;DHT22;22480;50.546;12.292;2024-03-02T04:53:18;5.00;99.90
36458;DHT22;22480;50.546;12.292;2024-03-02T04:55:44;5.00;99.90
36458;DHT22;22480;50.546;12.292;2024-03-02T04:58:09;5.00;99.90
36458;DHT22;22480;50.546;12.292;2024-03-02T05:00:35;5.00;99.90
36458;DHT22;22480;50.546;12.292;2024-03-02T05:03:01;5.10;99.90
36458;DHT22;22480;50.546;12.292;2024-03-02T05:05:27;5.00;99.90
36458;DHT22;22480;50.546;12.292;2024-03-02T05:07:53;5.00;99.90
36458;DHT22;22480;50.546;12.292;2024-03-02T05:10:19;5.00;99.90
36458;DHT22;22480;50.546;12.292;2024-03-02T05:12:44;4.90;99.90
36458;DHT22;22480;50.546;12.292;2024-03-02T05:15:11;5.00;99.90
36458;DHT22;22480;50.546;12.292;2024-03-02T05:17:38;5.10;99.90
36458;DHT22;22480;50.546;12.292;2024-03-02T05:20:07;5.10;99.90
36458;DHT22;22480;50.546;12.292;2024-03-02T05:22:35;5.20;99.90
36458;DHT22;22480;50.546;12.292;2024-03-02T05:25:03;5.20;99.90
36458;DHT22;22480;50.546;12.292;2024-03-02T05:27:29;5.20;99.90
36458;DHT22;22480;50.546;12.292;2024-03-02T05:29:55;5.20;99.90
36458;DHT22;22480;50.546;12.292;2024-03-02T05:32:21;5.30;99.90
36458;DHT22;22480;50.546;12.292;2024-03-02T05:34:47;5.30;99.90
36458;DHT22;22480;50.546;12.292;2024-03-02T05:37:12;5.30;99.90
36458;DHT22;22480;50.546;12.292;2024-03-02T05:39:38;5.30;99.90
36458;DHT22;22480;50.546;12.292;2024-03-02T05:42:04;5.30;99.90
36458;DHT22;22480;50.546;12.292;2024-03-02T05:44:30;5.30;99.90
36458;DHT22;22480;50.546;12.292;2024-03-02T05:46:55;5.30;99.90
36458;DHT22;22480;50.546;12.292;2024-03-02T05:49:21;5.30;99.90
36458;DHT22;22480;50.546;12.292;2024-03-02T05:51:47;5.30;99.90
36458;DHT22;22480;50.546;12.292;2024-03-02T05:54:13;5.30;99.90
36458;DHT22;22480;50.546;12.292;2024-03-02T05:56:39;5.30;99.90
36458;DHT22;22480;50.546;12.292;2024-03-02T05:59:04;5.30;99.90
36458;DHT22;22480;50.546;12.292;2024-03-02T06:01:40;5.30;99.90
36458;DHT22;22480;50.546;12.292;2024-03-02T06:04:06;5.40;99.90
36458;DHT22;22480;50.546;12.292;2024-03-02T06:06:33;5.30;99.90
36458;DHT22;22480;50.546;12.292;2024-03-02T06:09:02;5.40;99.90
36458;DHT22;22480;50.546;12.292;2024-03-02T06:11:36;5.30;99.90
36458;DHT22;22480;50.546;12.292;2024-03-02T06:14:02;5.40;99.90
36458;DHT22;22480;50.546;12.292;2024-03-02T06:16:28;5.30;99.90
36458;DHT22;22480;50.546;12.292;2024-03-02T06:18:55;5.40;99.90
36458;DHT22;22480;50.546;12.292;2024-03-02T06:21:23;5.40;99.90
36458;DHT22;22480;50.546;12.292;2024-03-02T06:23:49;5.50;99.90
36458;DHT22;22480;50.546;12.292;2024-03-02T06:26:14;5.50;99.90
36458;DHT22;22480;50.546;12.292;2024-03-02T06:28:40;5.50;99.90
36458;DHT22;22480;50.546;12.292;2024-03-02T06:31:06;5.50;99.90
36458;DHT22;22480;50.546;12.292;2024-03-02T06:33:32;5.50;99.90
36458;DHT22;22480;50.546;12.292;2024-03-02T06:35:57;5.60;99.90
36458;DHT22;22480;50.546;12.292;2024-03-02T06:38:23;5.60;99.90
36458;DHT22;22480;50.546;12.292;2024-03-02T06:40:48;5.60;99.90
36458;DHT22;22480;50.546;12.292;2024-03-02T06:43:15;5.70;99.90
36458;DHT22;22480;50.546;12.292;2024-03-02T06:45:40;5.80;99.90
36458;DHT22;22480;50.546;12.292;2024-03-02T06:48:06;5.90;99.90
36458;DHT22;22480;50.546;12.292;2024-03-02T06:50:32;5.90;99.90
36458;DHT22;22480;50.546;12.292;2024-03-02T06:52:58;5.90;99.90
36458;DHT22;22480;50.546;12.292;2024-03-02T06:55:23;6.00;99.90
36458;DHT22;22480;50.546;12.292;2024-03-02T06:57:52;6.00;99.90
36458;DHT22;22480;50.546;12.292;2024-03-02T07:00:18;6.00;99.90
36458;DHT22;22480;50.546;12.292;2024-03-02T07:02:45;6.10;99.90
36458;DHT22;22480;50.546;12.292;2024-03-02T07:05:11;6.10;99.90
36458;DHT22;22480;50.546;12.292;2024-03-02T07:07:37;6.10;99.90
36458;DHT22;22480;50.546;12.292;2024-03-02T07:10:04;6.20;99.90
36458;DHT22;22480;50.546;12.292;2024-03-02T07:12:30;6.30;99.90
36458;DHT22;22480;50.546;12.292;2024-03-02T07:14:57;6.40;99.90
36458;DHT22;22480;50.546;12.292;2024-03-02T07:17:29;6.40;99.90
36458;DHT22;22480;50.546;12.292;2024-03-02T07:19:55;6.50;99.90
36458;DHT22;22480;50.546;12.292;2024-03-02T07:22:21;6.60;99.90
36458;DHT22;22480;50.546;12.292;2024-03-02T07:24:47;6.60;99.90
36458;DHT22;22480;50.546;12.292;2024-03-02T07:27:13;6.60;99.90
36458;DHT22;22480;50.546;12.292;2024-03-02T07:29:39;6.80;99.90
36458;DHT22;22480;50.546;12.292;2024-03-02T07:32:06;6.90;99.90
36458;DHT22;22480;50.546;12.292;2024-03-02T07:34:31;6.90;99.90
36458;DHT22;22480;50.546;12.292;2024-03-02T07:36:57;7.00;99.90
36458;DHT22;22480;50.546;12.292;2024-03-02T07:39:24;7.10;99.90
36458;DHT22;22480;50.546;12.292;2024-03-02T07:41:49;7.10;99.90
36458;DHT22;22480;50.546;12.292;2024-03-02T07:44:15;7.10;99.90
36458;DHT22;22480;50.546;12.292;2024-03-02T07:46:44;7.20;99.90
36458;DHT22;22480;50.546;12.292;2024-03-02T07:49:12;7.30;99.90
36458;DHT22;22480;50.546;12.292;2024-03-02T07:51:39;7.50;99.90
36458;DHT22;22480;50.546;12.292;2024-03-02T07:54:05;7.50;99.90
36458;DHT22;22480;50.546;12.292;2024-03-02T07:56:30;7.50;99.90
36458;DHT22;22480;50.546;12.292;2024-03-02T07:58:56;7.60;99.90
36458;DHT22;22480;50.546;12.292;2024-03-02T08:01:27;7.60;99.90
36458;DHT22;22480;50.546;12.292;2024-03-02T08:03:53;7.70;99.90
36458;DHT22;22480;50.546;12.292;2024-03-02T08:06:18;7.80;99.90
36458;DHT22;22480;50.546;12.292;2024-03-02T08:08:47;7.90;99.90
36458;DHT22;22480;50.546;12.292;2024-03-02T08:11:13;7.80;99.90
36458;DHT22;22480;50.546;12.292;2024-03-02T08:13:38;7.90;99.90
36458;DHT22;22480;50.546;12.292;2024-03-02T08:16:05;7.80;99.90
36458;DHT22;22480;50.546;12.292;2024-03-02T08:18:33;7.80;99.90
36458;DHT22;22480;50.546;12.292;2024-03-02T08:20:59;7.80;99.90
36458;DHT22;22480;50.546;12.292;2024-03-02T08:23:25;7.90;99.90
36458;DHT22;22480;50.546;12.292;2024-03-02T08:25:51;7.90;99.90
36458;DHT22;22480;50.546;12.292;2024-03-02T08:28:17;7.80;99.90
36458;DHT22;22480;50.546;12.292;2024-03-02T08:30:43;7.80;99.90
36458;DHT22;22480;50.546;12.292;2024-03-02T08:33:08;7.80;99.90
36458;DHT22;22480;50.546;12.292;2024-03-02T08:35:34;7.90;99.90
36458;DHT22;22480;50.546;12.292;2024-03-02T08:38:04;7.90;99.90
36458;DHT22;22480;50.546;12.292;2024-03-02T08:40:30;8.00;99.90
36458;DHT22;22480;50.546;12.292;2024-03-02T08:42:56;8.10;99.90
36458;DHT22;22480;50.546;12.292;2024-03-02T08:45:22;8.20;99.90
36458;DHT22;22480;50.546;12.292;2024-03-02T08:47:48;8.30;99.90
36458;DHT22;22480;50.546;12.292;2024-03-02T08:50:14;8.50;99.90
36458;DHT22;22480;50.546;12.292;2024-03-02T08:52:39;8.60;99.90
36458;DHT22;22480;50.546;12.292;2024-03-02T08:55:06;8.80;99.90
36458;DHT22;22480;50.546;12.292;2024-03-02T08:57:33;9.00;99.90
36458;DHT22;22480;50.546;12.292;2024-03-02T08:59:59;9.10;99.90
36458;DHT22;22480;50.546;12.292;2024-03-02T09:02:25;9.20;99.90
36458;DHT22;22480;50.546;12.292;2024-03-02T09:04:51;9.20;99.90
36458;DHT22;22480;50.546;12.292;2024-03-02T09:07:17;9.00;99.90
36458;DHT22;22480;50.546;12.292;2024-03-02T09:09:42;9.20;99.90
36458;DHT22;22480;50.546;12.292;2024-03-02T09:12:08;9.40;99.90
36458;DHT22;22480;50.546;12.292;2024-03-02T09:14:35;9.50;99.90
36458;DHT22;22480;50.546;12.292;2024-03-02T09:17:02;9.60;99.90
36458;DHT22;22480;50.546;12.292;2024-03-02T09:19:29;9.30;99.90
36458;DHT22;22480;50.546;12.292;2024-03-02T09:21:55;9.20;99.90
36458;DHT22;22480;50.546;12.292;2024-03-02T09:24:21;9.40;99.90
36458;DHT22;22480;50.546;12.292;2024-03-02T09:26:47;9.40;99.90
36458;DHT22;22480;50.546;12.292;2024-03-02T09:29:13;9.30;99.90
36458;DHT22;22480;50.546;12.292;2024-03-02T09:31:43;9.30;99.90
36458;DHT22;22480;50.546;12.292;2024-03-02T09:34:09;9.40;99.90
36458;DHT22;22480;50.546;12.292;2024-03-02T09:36:34;9.40;99.90
36458;DHT22;22480;50.546;12.292;2024-03-02T09:39:00;9.60;99.90
36458;DHT22;22480;50.546;12.292;2024-03-02T09:41:26;9.60;99.90
36458;DHT22;22480;50.546;12.292;2024-03-02T09:43:52;9.80;99.90
36458;DHT22;22480;50.546;12.292;2024-03-02T09:46:18;10.00;99.90
36458;DHT22;22480;50.546;12.292;2024-03-02T09:48:44;10.30;99.90
36458;DHT22;22480;50.546;12.292;2024-03-02T09:51:11;10.50;99.90
36458;DHT22;22480;50.546;12.292;2024-03-02T09:53:37;10.70;99.90
36458;DHT22;22480;50.546;12.292;2024-03-02T09:56:03;11.10;99.90
36458;DHT22;22480;50.546;12.292;2024-03-02T09:58:30;11.40;99.90
36458;DHT22;22480;50.546;12.292;2024-03-02T10:00:56;11.80;99.90
36458;DHT22;22480;50.546;12.292;2024-03-02T10:03:23;12.30;99.90
36458;DHT22;22480;50.546;12.292;2024-03-02T10:05:50;12.40;99.90
36458;DHT22;22480;50.546;12.292;2024-03-02T10:08:15;12.70;99.90
36458;DHT22;22480;50.546;12.292;2024-03-02T10:10:41;13.60;99.90
36458;DHT22;22480;50.546;12.292;2024-03-02T10:13:10;13.70;99.90
36458;DHT22;22480;50.546;12.292;2024-03-02T10:15:36;13.40;99.90
36458;DHT22;22480;50.546;12.292;2024-03-02T10:18:03;13.30;99.90
36458;DHT22;22480;50.546;12.292;2024-03-02T10:20:29;13.10;99.90
36458;DHT22;22480;50.546;12.292;2024-03-02T10:22:56;13.00;99.90
36458;DHT22;22480;50.546;12.292;2024-03-02T10:25:32;13.20;99.90
36458;DHT22;22480;50.546;12.292;2024-03-02T10:27:59;13.60;99.90
36458;DHT22;22480;50.546;12.292;2024-03-02T10:30:28;14.10;99.50
36458;DHT22;22480;50.546;12.292;2024-03-02T10:32:56;14.30;99.70
36458;DHT22;22480;50.546;12.292;2024-03-02T10:35:22;14.80;94.00
36458;DHT22;22480;50.546;12.292;2024-03-02T10:37:49;15.00;95.60
36458;DHT22;22480;50.546;12.292;2024-03-02T10:40:15;15.60;92.30
36458;DHT22;22480;50.546;12.292;2024-03-02T10:42:42;15.80;90.40
36458;DHT22;22480;50.546;12.292;2024-03-02T10:45:09;15.80;90.10
36458;DHT22;22480;50.546;12.292;2024-03-02T10:47:38;15.90;86.60
36458;DHT22;22480;50.546;12.292;2024-03-02T10:50:05;15.80;89.30
36458;DHT22;22480;50.546;12.292;2024-03-02T10:52:35;15.70;88.60
36458;DHT22;22480;50.546;12.292;2024-03-02T10:55:01;15.60;90.90
36458;DHT22;22480;50.546;12.292;2024-03-02T10:57:27;15.60;89.50
36458;DHT22;22480;50.546;12.292;2024-03-02T11:00:02;16.00;90.10
36458;DHT22;22480;50.546;12.292;2024-03-02T11:02:28;16.80;83.20
36458;DHT22;22480;50.546;12.292;2024-03-02T11:04:55;17.20;83.40
36458;DHT22;22480;50.546;12.292;2024-03-02T11:07:23;17.60;81.10
36458;DHT22;22480;50.546;12.292;2024-03-02T11:10:01;17.60;77.30
36458;DHT22;22480;50.546;12.292;2024-03-02T11:12:39;17.10;79.40
36458;DHT22;22480;50.546;12.292;2024-03-02T11:15:11;17.30;76.10
36458;DHT22;22480;50.546;12.292;2024-03-02T11:17:40;17.50;77.10
36458;DHT22;22480;50.546;12.292;2024-03-02T11:20:08;17.30;77.60
36458;DHT22;22480;50.546;12.292;2024-03-02T11:22:36;17.40;78.50
36458;DHT22;22480;50.546;12.292;2024-03-02T11:25:02;18.20;80.40
36458;DHT22;22480;50.546;12.292;2024-03-02T11:32:59;17.80;76.60
36458;DHT22;22480;50.546;12.292;2024-03-02T11:35:26;17.70;76.80
36458;DHT22;22480;50.546;12.292;2024-03-02T11:37:52;17.10;77.60
36458;DHT22;22480;50.546;12.292;2024-03-02T11:40:26;17.00;78.40
36458;DHT22;22480;50.546;12.292;2024-03-02T11:42:52;17.10;80.40
36458;DHT22;22480;50.546;12.292;2024-03-02T11:45:22;17.30;77.80
36458;DHT22;22480;50.546;12.292;2024-03-02T11:47:52;17.60;76.50
36458;DHT22;22480;50.546;12.292;2024-03-02T11:50:33;17.40;77.20
36458;DHT22;22480;50.546;12.292;2024-03-02T11:53:00;16.50;79.80
36458;DHT22;22480;50.546;12.292;2024-03-02T11:55:30;16.50;84.40
36458;DHT22;22480;50.546;12.292;2024-03-02T11:57:56;16.00;84.60
36458;DHT22;22480;50.546;12.292;2024-03-02T12:00:23;15.90;86.60
36458;DHT22;22480;50.546;12.292;2024-03-02T12:03:02;16.10;89.60
36458;DHT22;22480;50.546;12.292;2024-03-02T12:05:30;16.90;83.80
36458;DHT22;22480;50.546;12.292;2024-03-02T12:08:00;16.80;82.00
36458;DHT22;22480;50.546;12.292;2024-03-02T12:10:26;17.20;84.00
36458;DHT22;22480;50.546;12.292;2024-03-02T12:13:05;18.20;80.30
36458;DHT22;22480;50.546;12.292;2024-03-02T12:15:38;18.60;76.20
36458;DHT22;22480;50.546;12.292;2024-03-02T12:18:04;18.80;72.30
36458;DHT22;22480;50.546;12.292;2024-03-02T12:20:32;18.80;77.50
36458;DHT22;22480;50.546;12.292;2024-03-02T12:22:59;18.90;72.90
36458;DHT22;22480;50.546;12.292;2024-03-02T12:25:25;18.70;76.20
36458;DHT22;22480;50.546;12.292;2024-03-02T12:27:54;19.20;74.90
36458;DHT22;22480;50.546;12.292;2024-03-02T12:30:20;19.30;71.50
36458;DHT22;22480;50.546;12.292;2024-03-02T12:32:47;19.10;72.00
36458;DHT22;22480;50.546;12.292;2024-03-02T12:35:13;18.80;72.10
36458;DHT22;22480;50.546;12.292;2024-03-02T12:37:46;18.70;74.40
36458;DHT22;22480;50.546;12.292;2024-03-02T12:40:13;19.30;73.90
36458;DHT22;22480;50.546;12.292;2024-03-02T12:42:39;19.20;72.30
36458;DHT22;22480;50.546;12.292;2024-03-02T12:45:06;19.30;70.70
36458;DHT22;22480;50.546;12.292;2024-03-02T12:51:19;19.10;69.80
36458;DHT22;22480;50.546;12.292;2024-03-02T12:53:45;18.70;70.30
36458;DHT22;22480;50.546;12.292;2024-03-02T12:56:11;19.30;69.90
36458;DHT22;22480;50.546;12.292;2024-03-02T12:58:40;18.80;69.20
36458;DHT22;22480;50.546;12.292;2024-03-02T13:01:08;18.50;70.50
36458;DHT22;22480;50.546;12.292;2024-03-02T13:03:38;18.30;70.80
36458;DHT22;22480;50.546;12.292;2024-03-02T13:06:05;18.40;72.10
36458;DHT22;22480;50.546;12.292;2024-03-02T13:08:32;18.60;71.70
36458;DHT22;22480;50.546;12.292;2024-03-02T13:10:58;18.40;72.80
36458;DHT22;22480;50.546;12.292;2024-03-02T13:13:23;18.00;73.40
36458;DHT22;22480;50.546;12.292;2024-03-02T13:15:49;18.30;73.70
36458;DHT22;22480;50.546;12.292;2024-03-02T13:18:17;18.30;74.40
36458;DHT22;22480;50.546;12.292;2024-03-02T13:20:43;18.70;71.00
36458;DHT22;22480;50.546;12.292;2024-03-02T13:23:09;18.70;70.10
36458;DHT22;22480;50.546;12.292;2024-03-02T13:25:35;18.40;72.90
36458;DHT22;22480;50.546;12.292;2024-03-02T13:28:01;18.80;70.70
36458;DHT22;22480;50.546;12.292;2024-03-02T13:30:27;19.20;68.50
36458;DHT22;22480;50.546;12.292;2024-03-02T13:32:53;18.80;69.80
36458;DHT22;22480;50.546;12.292;2024-03-02T13:35:19;18.60;69.20
36458;DHT22;22480;50.546;12.292;2024-03-02T13:37:45;18.10;70.90
36458;DHT22;22480;50.546;12.292;2024-03-02T13:40:10;17.90;70.60
36458;DHT22;22480;50.546;12.292;2024-03-02T13:42:42;18.00;71.10
36458;DHT22;22480;50.546;12.292;2024-03-02T13:45:08;18.00;71.20
36458;DHT22;22480;50.546;12.292;2024-03-02T13:47:33;18.20;70.00
36458;DHT22;22480;50.546;12.292;2024-03-02T13:49:59;18.70;70.50
36458;DHT22;22480;50.546;12.292;2024-03-02T13:52:25;19.60;70.50
36458;DHT22;22480;50.546;12.292;2024-03-02T13:54:52;20.50;66.60
36458;DHT22;22480;50.546;12.292;2024-03-02T13:57:20;21.20;61.60
36458;DHT22;22480;50.546;12.292;2024-03-02T13:59:46;21.90;63.00
36458;DHT22;22480;50.546;12.292;2024-03-02T14:02:12;22.20;59.90
36458;DHT22;22480;50.546;12.292;2024-03-02T14:04:38;22.30;59.80
36458;DHT22;22480;50.546;12.292;2024-03-02T14:07:05;22.60;57.40
36458;DHT22;22480;50.546;12.292;2024-03-02T14:09:34;22.80;59.10
36458;DHT22;22480;50.546;12.292;2024-03-02T14:12:00;22.70;57.80
36458;DHT22;22480;50.546;12.292;2024-03-02T14:14:26;22.70;54.70
36458;DHT22;22480;50.546;12.292;2024-03-02T14:16:53;22.60;57.70
36458;DHT22;22480;50.546;12.292;2024-03-02T14:19:19;22.90;55.90
36458;DHT22;22480;50.546;12.292;2024-03-02T14:21:47;21.90;56.10
36458;DHT22;22480;50.546;12.292;2024-03-02T14:24:13;20.50;58.80
36458;DHT22;22480;50.546;12.292;2024-03-02T14:26:39;20.00;60.60
36458;DHT22;22480;50.546;12.292;2024-03-02T14:29:05;20.00;59.50
36458;DHT22;22480;50.546;12.292;2024-03-02T14:31:31;19.90;59.10
36458;DHT22;22480;50.546;12.292;2024-03-02T14:33:57;19.60;60.40
36458;DHT22;22480;50.546;12.292;2024-03-02T14:36:23;19.60;61.50
36458;DHT22;22480;50.546;12.292;2024-03-02T14:38:49;19.80;60.90
36458;DHT22;22480;50.546;12.292;2024-03-02T14:41:15;19.80;61.30
36458;DHT22;22480;50.546;12.292;2024-03-02T14:43:41;19.70;60.10
36458;DHT22;22480;50.546;12.292;2024-03-02T14:46:07;19.60;61.20
36458;DHT22;22480;50.546;12.292;2024-03-02T14:48:36;19.70;64.40
36458;DHT22;22480;50.546;12.292;2024-03-02T14:51:02;19.70;61.50
36458;DHT22;22480;50.546;12.292;2024-03-02T14:53:28;19.70;62.60
36458;DHT22;22480;50.546;12.292;2024-03-02T14:55:54;19.60;62.50
36458;DHT22;22480;50.546;12.292;2024-03-02T14:58:20;19.10;61.60
36458;DHT22;22480;50.546;12.292;2024-03-02T15:00:46;18.80;64.70
36458;DHT22;22480;50.546;12.292;2024-03-02T15:03:12;18.50;66.50
36458;DHT22;22480;50.546;12.292;2024-03-02T15:05:38;18.70;66.10
36458;DHT22;22480;50.546;12.292;2024-03-02T15:08:04;18.50;65.50
36458;DHT22;22480;50.546;12.292;2024-03-02T15:10:31;18.10;67.80
36458;DHT22;22480;50.546;12.292;2024-03-02T15:12:57;17.60;69.00
36458;DHT22;22480;50.546;12.292;2024-03-02T15:15:23;17.70;69.00
36458;DHT22;22480;50.546;12.292;2024-03-02T15:17:48;17.70;69.30
36458;DHT22;22480;50.546;12.292;2024-03-02T15:20:14;17.90;68.20
36458;DHT22;22480;50.546;12.292;2024-03-02T15:22:41;17.90;69.70
36458;DHT22;22480;50.546;12.292;2024-03-02T15:25:07;17.90;71.20
36458;DHT22;22480;50.546;12.292;2024-03-02T15:27:32;18.40;68.70
36458;DHT22;22480;50.546;12.292;2024-03-02T15:29:58;18.70;68.30
36458;DHT22;22480;50.546;12.292;2024-03-02T15:32:24;19.00;66.10